Dundas, Canada
Current Conditions -  °F | °C
As of 9:42 AM on Tuesday 21 Oct 2014 (Local Time) from CYHM Reporting Station
Rain Showers Rain Showers  
Wind Chill: 45°   Ceiling: 1600
Heat Index: 48°   Visibility: 7mi
Dew Point: 46°   Wind: 7mph
Humidity: 93%   Direction: 300°WNW
Pressure: 29.85"   Gusts: NA
Location:  43.27°N, 79.93°W
Report Text: CYHM 211342Z 30006KT 7SM -SHRA FEW006 OVC016 09/08 A2985 RMK SF2SC6 SLP112
Loading
Personal Weather Stations






























Interactive Weather Map
Tropical Storm Tracking
New forecast layout! Learn more

10-Day Weather Forecast

Advertisements
Track Severe Weather on mobile